createdAt,value
2022-12-15T00:02:19.473Z,-4.86
2022-12-15T00:05:04.978Z,-4.84
2022-12-15T00:07:50.467Z,-4.88
2022-12-15T00:10:35.716Z,-4.83
2022-12-15T00:13:21.216Z,-4.86
2022-12-15T00:16:06.690Z,-4.97
2022-12-15T00:18:53.196Z,-4.94
2022-12-15T00:21:38.645Z,-4.96
2022-12-15T00:24:24.485Z,-4.85
2022-12-15T00:27:10.024Z,-4.83
2022-12-15T00:29:55.330Z,-4.85
2022-12-15T00:32:40.619Z,-4.91
2022-12-15T00:35:27.727Z,-4.94
2022-12-15T00:38:13.214Z,-4.93
2022-12-15T00:40:40.832Z,-4.82
2022-12-15T00:43:11.951Z,-4.95
2022-12-15T00:45:57.711Z,-4.94
2022-12-15T00:48:25.287Z,-4.97
2022-12-15T00:50:53.312Z,-4.97
2022-12-15T00:53:38.833Z,-4.93
2022-12-15T00:56:24.765Z,-4.94
2022-12-15T00:59:10.281Z,-4.88
2022-12-15T01:01:55.836Z,-4.95
2022-12-15T01:04:41.030Z,-4.95
2022-12-15T01:07:27.750Z,-4.99
2022-12-15T01:10:13.111Z,-5.04
2022-12-15T01:12:58.598Z,-5.02
2022-12-15T01:15:43.963Z,-4.99
2022-12-15T01:18:29.445Z,-4.93
2022-12-15T01:20:57.693Z,-4.84
2022-12-15T01:23:27.220Z,-4.78
2022-12-15T01:25:55.363Z,-4.86
2022-12-15T01:28:23.166Z,-4.84
2022-12-15T01:30:50.844Z,-4.86
2022-12-15T01:33:18.932Z,-4.87
2022-12-15T01:35:47.530Z,-4.89
2022-12-15T01:38:15.105Z,-4.75
2022-12-15T01:40:52.333Z,-4.70
2022-12-15T01:43:22.402Z,-4.65
2022-12-15T01:45:58.917Z,-4.65
2022-12-15T01:48:35.339Z,-4.71
2022-12-15T01:51:11.606Z,-4.73
2022-12-15T01:53:42.008Z,-4.69
2022-12-15T01:56:11.358Z,-4.64
2022-12-15T01:58:42.086Z,-4.67
2022-12-15T02:01:10.217Z,-4.74
2022-12-15T02:03:39.213Z,-4.75
2022-12-15T02:06:07.826Z,-4.68
2022-12-15T02:08:35.439Z,-4.81
2022-12-15T02:11:23.942Z,-4.78
2022-12-15T02:13:57.454Z,-4.64
2022-12-15T02:16:31.792Z,-4.59
2022-12-15T02:19:04.366Z,-4.58
2022-12-15T02:21:34.611Z,-4.53
2022-12-15T02:24:31.417Z,-4.61
2022-12-15T02:27:17.173Z,-4.54
2022-12-15T02:30:20.472Z,-4.68
2022-12-15T02:32:58.879Z,-4.73
2022-12-15T02:35:30.587Z,-4.62
2022-12-15T02:37:58.241Z,-4.61
2022-12-15T02:40:25.811Z,-4.59
2022-12-15T02:42:54.718Z,-4.60
2022-12-15T02:45:28.407Z,-4.68
2022-12-15T02:48:11.008Z,-4.63
2022-12-15T02:50:58.811Z,-4.63
2022-12-15T02:54:04.463Z,-4.62
2022-12-15T02:56:37.699Z,-4.66
2022-12-15T02:59:11.123Z,-4.63
2022-12-15T03:01:42.953Z,-4.60
2022-12-15T03:04:13.513Z,-4.68
2022-12-15T03:06:41.292Z,-4.75
2022-12-15T03:09:08.927Z,-4.73
2022-12-15T03:11:37.807Z,-4.80
2022-12-15T03:14:05.384Z,-4.62
2022-12-15T03:16:33.132Z,-4.68
2022-12-15T03:19:00.826Z,-4.68
2022-12-15T03:21:29.780Z,-4.71
2022-12-15T03:23:57.349Z,-4.73
2022-12-15T03:26:24.910Z,-4.66
2022-12-15T03:28:52.787Z,-4.61
2022-12-15T03:31:20.419Z,-4.68
2022-12-15T03:33:48.100Z,-4.70
2022-12-15T03:36:15.657Z,-4.60
2022-12-15T03:38:44.548Z,-4.54
2022-12-15T03:41:12.157Z,-4.54
2022-12-15T03:43:39.733Z,-4.51
2022-12-15T03:46:07.365Z,-4.52
2022-12-15T03:48:34.981Z,-4.56
2022-12-15T03:51:02.546Z,-4.58
2022-12-15T03:53:30.434Z,-4.62
2022-12-15T03:55:59.677Z,-4.60
2022-12-15T03:58:27.244Z,-4.58
2022-12-15T04:00:54.898Z,-4.62
2022-12-15T04:03:22.747Z,-4.47
2022-12-15T04:05:50.414Z,-4.46
2022-12-15T04:08:17.990Z,-4.45
2022-12-15T04:10:45.623Z,-4.40
2022-12-15T04:13:14.565Z,-4.39
2022-12-15T04:15:42.191Z,-4.36
2022-12-15T04:18:11.476Z,-4.37
2022-12-15T04:20:40.110Z,-4.38
2022-12-15T04:23:07.909Z,-4.48
2022-12-15T04:25:54.143Z,-4.39
2022-12-15T04:28:40.765Z,-4.39
2022-12-15T04:31:27.688Z,-4.37
2022-12-15T04:34:15.019Z,-4.36
2022-12-15T04:37:01.882Z,-4.37
2022-12-15T04:39:47.222Z,-4.34
2022-12-15T04:42:32.652Z,-4.41
2022-12-15T04:45:21.269Z,-4.41
2022-12-15T04:48:06.478Z,-4.39
2022-12-15T04:50:52.002Z,-4.46
2022-12-15T04:53:37.855Z,-4.48
2022-12-15T04:56:23.247Z,-4.53
2022-12-15T04:59:08.791Z,-4.57
2022-12-15T05:01:55.645Z,-4.52
2022-12-15T05:04:41.313Z,-4.46
2022-12-15T05:07:26.311Z,-4.58
2022-12-15T05:10:15.203Z,-4.67
2022-12-15T05:13:00.569Z,-4.60
2022-12-15T05:15:45.935Z,-4.63
2022-12-15T05:18:32.374Z,-4.50
2022-12-15T05:21:17.874Z,-4.44
2022-12-15T05:24:03.217Z,-4.45
2022-12-15T05:26:52.627Z,-4.51
2022-12-15T05:29:38.535Z,-4.53
2022-12-15T05:32:06.417Z,-4.71
2022-12-15T05:34:37.071Z,-4.90
2022-12-15T05:37:05.781Z,-4.86
2022-12-15T05:39:33.592Z,-4.90
2022-12-15T05:42:01.291Z,-4.90
2022-12-15T05:44:29.500Z,-4.79
2022-12-15T05:46:57.332Z,-4.72
2022-12-15T05:49:25.285Z,-4.78
2022-12-15T05:51:54.171Z,-4.70
2022-12-15T05:54:21.959Z,-4.66
2022-12-15T05:56:50.264Z,-4.71
2022-12-15T05:59:18.949Z,-4.90
2022-12-15T06:01:46.826Z,-4.83
2022-12-15T06:04:14.754Z,-4.83
2022-12-15T06:06:42.663Z,-4.88
2022-12-15T06:09:11.836Z,-4.79
2022-12-15T06:11:39.732Z,-4.76
2022-12-15T06:14:07.938Z,-4.93
2022-12-15T06:16:39.558Z,-4.88
2022-12-15T06:19:10.436Z,-4.86
2022-12-15T06:21:38.016Z,-4.90
2022-12-15T06:24:07.288Z,-4.87
2022-12-15T06:26:37.857Z,-4.86
2022-12-15T06:29:07.625Z,-4.76
2022-12-15T06:31:37.008Z,-4.79
2022-12-15T06:34:05.328Z,-4.77
2022-12-15T06:36:33.006Z,-4.82
2022-12-15T06:39:01.539Z,-4.74
2022-12-15T06:41:30.922Z,-4.90
2022-12-15T06:44:00.822Z,-4.87
2022-12-15T06:46:30.440Z,-4.83
2022-12-15T06:48:58.983Z,-4.72
2022-12-15T06:51:29.859Z,-4.73
2022-12-15T06:53:57.441Z,-4.75
2022-12-15T06:56:33.005Z,-4.82
2022-12-15T06:59:03.740Z,-4.78
2022-12-15T07:01:32.287Z,-4.80
2022-12-15T07:04:02.789Z,-4.74
2022-12-15T07:06:34.189Z,-4.75
2022-12-15T07:09:01.908Z,-4.68
2022-12-15T07:11:29.731Z,-4.66
2022-12-15T07:13:57.376Z,-4.72
2022-12-15T07:16:26.778Z,-4.64
2022-12-15T07:18:54.473Z,-4.52
2022-12-15T07:21:22.056Z,-4.52
2022-12-15T07:23:55.173Z,-4.44
2022-12-15T07:26:23.539Z,-4.50
2022-12-15T07:28:51.173Z,-4.49
2022-12-15T07:31:18.846Z,-4.47
2022-12-15T07:33:48.262Z,-4.43
2022-12-15T07:36:16.493Z,-4.34
2022-12-15T07:38:45.408Z,-4.28
2022-12-15T07:41:18.091Z,-4.25
2022-12-15T07:43:47.021Z,-4.22
2022-12-15T07:46:14.848Z,-4.24
2022-12-15T07:48:42.507Z,-4.26
2022-12-15T07:51:19.129Z,-4.15
2022-12-15T07:53:47.466Z,-4.16
2022-12-15T07:56:15.649Z,-4.17
2022-12-15T07:58:43.448Z,-4.15
2022-12-15T08:01:12.771Z,-4.17
2022-12-15T08:03:41.335Z,-4.25
2022-12-15T08:06:11.975Z,-4.27
2022-12-15T08:08:40.232Z,-4.23
2022-12-15T08:11:08.468Z,-4.13
2022-12-15T08:16:24.933Z,-4.02
2022-12-15T08:18:52.708Z,-3.90
2022-12-15T08:21:21.766Z,-3.85
2022-12-15T08:23:49.461Z,-3.80
2022-12-15T08:26:18.809Z,-3.86
2022-12-15T08:28:46.815Z,-3.84
2022-12-15T08:31:16.849Z,-3.79
2022-12-15T08:33:45.415Z,-3.85
2022-12-15T08:36:14.984Z,-3.79
2022-12-15T08:38:44.735Z,-3.91
2022-12-15T08:41:14.239Z,-3.85
2022-12-15T08:43:48.157Z,-3.74
2022-12-15T08:46:17.010Z,-3.83
2022-12-15T08:48:45.027Z,-3.59
2022-12-15T08:51:12.701Z,-3.61
2022-12-15T08:53:40.475Z,-3.68
2022-12-15T08:56:12.140Z,-3.71
2022-12-15T08:58:40.207Z,-3.49
2022-12-15T09:01:10.806Z,-3.54
2022-12-15T09:03:38.839Z,-3.46
2022-12-15T09:06:07.898Z,-3.33
2022-12-15T09:08:36.003Z,-3.05
2022-12-15T09:11:05.557Z,-3.13
2022-12-15T09:13:35.273Z,-3.06
2022-12-15T09:16:10.456Z,-2.96
2022-12-15T09:18:38.255Z,-2.95
2022-12-15T09:21:07.852Z,-3.01
2022-12-15T09:23:37.144Z,-2.89
2022-12-15T09:26:06.599Z,-2.99
2022-12-15T09:28:35.997Z,-2.84
2022-12-15T09:31:04.178Z,-2.87
2022-12-15T09:33:32.353Z,-2.65
2022-12-15T09:36:00.292Z,-2.78
2022-12-15T09:38:27.882Z,-2.62
2022-12-15T09:40:55.830Z,-2.31
2022-12-15T09:43:46.416Z,-2.38
2022-12-15T09:46:22.148Z,-2.56
2022-12-15T09:48:50.633Z,-2.20
2022-12-15T09:51:19.421Z,-1.65
2022-12-15T09:53:56.111Z,-1.48
2022-12-15T09:56:29.740Z,-1.14
2022-12-15T09:59:02.052Z,-1.25
2022-12-15T10:01:35.538Z,-1.78
2022-12-15T10:04:08.047Z,-1.92
2022-12-15T10:06:39.659Z,-1.61
2022-12-15T10:09:15.922Z,-1.79
2022-12-15T10:11:50.680Z,-1.67
2022-12-15T10:14:25.894Z,-1.68
2022-12-15T10:17:02.420Z,-2.15
2022-12-15T10:19:35.503Z,-2.09
2022-12-15T10:22:03.500Z,-1.95
2022-12-15T10:27:41.264Z,-2.00
2022-12-15T10:30:10.785Z,-2.43
2022-12-15T10:32:52.096Z,-2.39
2022-12-15T10:35:23.918Z,-2.22
2022-12-15T10:37:51.853Z,-2.26
2022-12-15T10:40:20.988Z,-2.26
2022-12-15T10:42:50.259Z,-2.30
2022-12-15T10:45:39.552Z,-2.02
2022-12-15T10:48:19.564Z,-1.66
2022-12-15T10:50:50.062Z,-1.58
2022-12-15T10:53:35.478Z,-1.51
2022-12-15T10:56:03.395Z,-1.41
2022-12-15T10:58:31.041Z,-1.54
2022-12-15T11:01:08.127Z,-1.64
2022-12-15T11:03:40.377Z,-1.43
2022-12-15T11:06:14.162Z,-1.38
2022-12-15T11:08:42.861Z,-1.49
2022-12-15T11:11:45.217Z,-1.78
2022-12-15T11:14:15.996Z,-1.55
2022-12-15T11:16:50.694Z,-1.86
2022-12-15T11:19:29.938Z,-1.75
2022-12-15T11:22:02.732Z,-1.68
2022-12-15T11:24:36.486Z,-1.74
2022-12-15T11:27:11.500Z,-1.94
2022-12-15T11:29:47.415Z,-2.18
2022-12-15T11:32:19.302Z,-2.09
2022-12-15T11:34:48.778Z,-2.21
2022-12-15T11:40:39.894Z,-2.18
2022-12-15T11:43:21.807Z,-2.06
2022-12-15T11:46:03.035Z,-2.20
2022-12-15T11:48:36.823Z,-1.99
2022-12-15T11:51:07.623Z,-1.85
2022-12-15T11:53:46.823Z,-1.64
2022-12-15T11:56:26.105Z,-1.68
2022-12-15T11:59:17.692Z,-2.06
2022-12-15T12:02:03.020Z,-2.13
2022-12-15T12:04:39.807Z,-2.07
2022-12-15T12:07:15.690Z,-2.08
2022-12-15T12:09:48.669Z,-1.79
2022-12-15T12:12:21.849Z,-1.69
2022-12-15T12:14:58.984Z,-1.70
2022-12-15T12:17:34.535Z,-1.72
2022-12-15T12:20:11.252Z,-1.81
2022-12-15T12:22:43.300Z,-1.83
2022-12-15T12:25:14.601Z,-1.76
2022-12-15T12:30:40.397Z,-1.76
2022-12-15T12:33:14.138Z,-1.63
2022-12-15T12:35:46.487Z,-1.62
2022-12-15T12:38:20.186Z,-1.65
2022-12-15T12:40:54.982Z,-1.56
2022-12-15T12:43:34.015Z,-1.59
2022-12-15T12:46:06.327Z,-1.63
2022-12-15T12:48:37.672Z,-1.67
2022-12-15T12:51:14.961Z,-1.92
2022-12-15T12:53:43.974Z,-2.04
2022-12-15T12:56:30.247Z,-1.99
2022-12-15T12:58:58.043Z,-2.17
2022-12-15T13:01:28.916Z,-2.04
2022-12-15T13:04:11.780Z,-1.96
2022-12-15T13:07:06.831Z,-1.96
2022-12-15T13:09:41.532Z,-1.98
2022-12-15T13:12:51.020Z,-1.95
2022-12-15T13:15:30.646Z,-1.86
2022-12-15T13:18:01.404Z,-1.73
2022-12-15T13:20:30.789Z,-1.73
2022-12-15T13:23:32.239Z,-1.68
2022-12-15T13:26:12.728Z,-1.80
2022-12-15T13:28:46.217Z,-2.00
2022-12-15T13:31:27.605Z,-2.05
2022-12-15T13:33:59.893Z,-2.24
2022-12-15T13:36:52.573Z,-2.35
2022-12-15T13:39:37.014Z,-2.29
2022-12-15T13:42:35.957Z,-2.33
2022-12-15T13:45:35.874Z,-2.28
2022-12-15T13:48:12.615Z,-2.37
2022-12-15T13:50:51.531Z,-2.47
2022-12-15T13:53:21.917Z,-2.58
2022-12-15T13:56:00.351Z,-2.63
2022-12-15T13:58:30.158Z,-2.74
2022-12-15T14:00:59.673Z,-2.74
2022-12-15T14:03:27.433Z,-2.65
2022-12-15T14:05:56.512Z,-2.56
2022-12-15T14:08:25.345Z,-2.63
2022-12-15T14:10:54.613Z,-2.55
2022-12-15T14:13:24.696Z,-2.52
2022-12-15T14:15:55.424Z,-2.68
2022-12-15T14:18:28.943Z,-2.70
2022-12-15T14:20:57.062Z,-2.72
2022-12-15T14:23:26.890Z,-2.83
2022-12-15T14:25:56.965Z,-2.85
2022-12-15T14:28:30.875Z,-2.77
2022-12-15T14:31:04.075Z,-2.90
2022-12-15T14:33:35.341Z,-2.94
2022-12-15T14:36:06.310Z,-3.05
2022-12-15T14:38:40.226Z,-3.02
2022-12-15T14:41:11.017Z,-3.06
2022-12-15T14:43:40.162Z,-3.18
2022-12-15T14:46:11.123Z,-3.29
2022-12-15T14:48:41.699Z,-3.37
2022-12-15T14:51:22.169Z,-3.51
2022-12-15T14:53:53.301Z,-3.59
2022-12-15T14:56:30.357Z,-3.74
2022-12-15T14:59:03.476Z,-3.82
2022-12-15T15:01:36.635Z,-3.87
2022-12-15T15:03:07.112Z,-1.75
2022-12-15T15:03:09.173Z,-2.25
2022-12-15T15:04:06.318Z,-3.86
2022-12-15T15:06:38.160Z,-3.96
2022-12-15T15:09:18.050Z,-4.04
2022-12-15T15:11:45.782Z,-4.05
2022-12-15T15:14:15.774Z,-4.16
2022-12-15T15:16:45.321Z,-4.21
2022-12-15T15:19:18.457Z,-4.25
2022-12-15T15:21:46.919Z,-4.25
2022-12-15T15:24:24.926Z,-4.31
2022-12-15T15:26:53.108Z,-4.27
2022-12-15T15:29:40.950Z,-4.25
2022-12-15T15:32:16.919Z,-4.25
2022-12-15T15:34:45.192Z,-4.22
2022-12-15T15:37:18.530Z,-4.32
2022-12-15T15:39:46.640Z,-4.25
2022-12-15T15:42:14.227Z,-4.29
2022-12-15T15:44:41.896Z,-4.34
2022-12-15T15:47:19.201Z,-4.38
2022-12-15T15:49:47.298Z,-4.38
2022-12-15T15:52:14.966Z,-4.39
2022-12-15T15:54:43.540Z,-4.41
2022-12-15T15:57:14.179Z,-4.43
2022-12-15T15:59:43.983Z,-4.46
2022-12-15T16:02:14.300Z,-4.50
2022-12-15T16:04:42.822Z,-4.54
2022-12-15T16:07:18.114Z,-4.59
2022-12-15T16:09:45.775Z,-4.65
2022-12-15T16:12:22.319Z,-4.65
2022-12-15T16:14:49.882Z,-4.67
2022-12-15T16:17:18.925Z,-4.71
2022-12-15T16:19:46.525Z,-4.69
2022-12-15T16:22:16.599Z,-4.73
2022-12-15T16:24:44.611Z,-4.77
2022-12-15T16:27:13.237Z,-4.79
2022-12-15T16:29:41.178Z,-4.80
2022-12-15T16:32:10.358Z,-4.85
2022-12-15T16:34:39.298Z,-4.81
2022-12-15T16:37:07.038Z,-4.81
2022-12-15T16:39:36.094Z,-4.80
2022-12-15T16:42:04.039Z,-4.84
2022-12-15T16:44:31.863Z,-4.85
2022-12-15T16:46:59.822Z,-4.86
2022-12-15T16:49:33.889Z,-4.85
2022-12-15T16:52:07.134Z,-4.90
2022-12-15T16:54:34.842Z,-4.89
2022-12-15T16:57:03.844Z,-4.96
2022-12-15T16:59:33.522Z,-4.94
2022-12-15T17:02:02.270Z,-4.95
2022-12-15T17:04:30.070Z,-4.94
2022-12-15T17:06:57.639Z,-4.90
2022-12-15T17:09:26.888Z,-4.94
2022-12-15T17:11:54.547Z,-4.89
2022-12-15T17:14:22.158Z,-4.87
2022-12-15T17:16:50.299Z,-4.83
2022-12-15T17:19:21.330Z,-4.90
2022-12-15T17:21:51.795Z,-4.84
2022-12-15T17:24:21.050Z,-4.75
2022-12-15T17:26:50.450Z,-4.73
2022-12-15T17:29:19.942Z,-4.75
2022-12-15T17:31:47.651Z,-4.69
2022-12-15T17:34:25.096Z,-4.62
2022-12-15T17:36:52.875Z,-4.55
2022-12-15T17:39:21.848Z,-4.55
2022-12-15T17:41:59.748Z,-4.50
2022-12-15T17:44:33.622Z,-4.56
2022-12-15T17:47:03.113Z,-4.51
2022-12-15T17:49:35.621Z,-4.50
2022-12-15T17:52:07.431Z,-4.46
2022-12-15T17:54:35.593Z,-4.47
2022-12-15T17:57:04.786Z,-4.40
2022-12-15T17:59:32.553Z,-4.36
2022-12-15T18:02:00.666Z,-4.38
2022-12-15T18:04:28.347Z,-4.31
2022-12-15T18:07:01.642Z,-4.30
2022-12-15T18:09:30.114Z,-4.31
2022-12-15T18:11:57.942Z,-4.31
2022-12-15T18:14:28.624Z,-4.16
2022-12-15T18:16:56.221Z,-4.17
2022-12-15T18:19:23.828Z,-4.01
2022-12-15T18:21:51.561Z,-4.17
2022-12-15T18:24:21.512Z,-4.18
2022-12-15T18:26:49.536Z,-4.27
2022-12-15T18:29:18.585Z,-4.26
2022-12-15T18:31:49.278Z,-4.27
2022-12-15T18:34:21.044Z,-4.25
2022-12-15T18:36:48.831Z,-4.22
2022-12-15T18:39:20.374Z,-4.26
2022-12-15T18:41:48.318Z,-4.21
2022-12-15T18:44:20.448Z,-4.23
2022-12-15T18:46:49.480Z,-4.28
2022-12-15T18:49:17.958Z,-4.32
2022-12-15T18:51:46.379Z,-4.21
2022-12-15T18:54:17.039Z,-4.22
2022-12-15T18:56:44.653Z,-4.22
2022-12-15T18:59:15.557Z,-4.19
2022-12-15T19:01:43.838Z,-4.20
2022-12-15T19:04:13.075Z,-4.16
2022-12-15T19:06:41.045Z,-4.13
2022-12-15T19:09:12.962Z,-4.15
2022-12-15T19:11:40.619Z,-4.08
2022-12-15T19:14:35.135Z,-4.14
2022-12-15T19:17:20.120Z,-4.14
2022-12-15T19:20:06.693Z,-4.18
2022-12-15T19:22:34.255Z,-4.04
2022-12-15T19:25:05.919Z,-4.21
2022-12-15T19:27:33.522Z,-4.15
2022-12-15T19:30:01.314Z,-4.24
2022-12-15T19:32:28.921Z,-4.19
2022-12-15T19:34:57.921Z,-4.21
2022-12-15T19:37:28.996Z,-4.22
2022-12-15T19:39:57.862Z,-4.23
2022-12-15T19:42:35.404Z,-4.20
2022-12-15T19:45:03.603Z,-4.12
2022-12-15T19:47:31.160Z,-4.12
2022-12-15T19:50:00.189Z,-4.10
2022-12-15T19:52:28.266Z,-4.14
2022-12-15T19:54:55.809Z,-4.27
2022-12-15T19:57:23.431Z,-4.24
2022-12-15T19:59:50.997Z,-4.23
2022-12-15T20:02:20.346Z,-4.25
2022-12-15T20:04:49.022Z,-4.22
2022-12-15T20:07:19.628Z,-4.15
2022-12-15T20:09:47.447Z,-4.09
2022-12-15T20:12:17.955Z,-4.10
2022-12-15T20:14:45.706Z,-3.98
2022-12-15T20:17:13.311Z,-4.02
2022-12-15T20:19:40.892Z,-3.94
2022-12-15T20:22:12.170Z,-3.93
2022-12-15T20:24:41.230Z,-3.94
2022-12-15T20:27:13.034Z,-3.95
2022-12-15T20:29:40.719Z,-3.93
2022-12-15T20:32:15.530Z,-3.93
2022-12-15T20:34:43.226Z,-3.95
2022-12-15T20:37:18.205Z,-3.98
2022-12-15T20:39:48.040Z,-3.94
2022-12-15T20:42:20.069Z,-3.87
2022-12-15T20:44:47.867Z,-3.84
2022-12-15T20:47:19.130Z,-3.91
2022-12-15T20:49:46.708Z,-3.83
2022-12-15T20:52:20.181Z,-3.84
2022-12-15T20:54:49.185Z,-3.80
2022-12-15T20:57:17.558Z,-3.81
2022-12-15T20:59:45.762Z,-3.77
2022-12-15T21:02:18.814Z,-3.73
2022-12-15T21:04:47.290Z,-3.69
2022-12-15T21:07:14.945Z,-3.71
2022-12-15T21:09:42.540Z,-3.68
2022-12-15T21:12:18.102Z,-3.68
2022-12-15T21:14:45.708Z,-3.89
2022-12-15T21:17:15.708Z,-3.93
2022-12-15T21:19:43.424Z,-3.87
2022-12-15T21:22:17.118Z,-3.84
2022-12-15T21:24:44.825Z,-3.80
2022-12-15T21:27:15.483Z,-3.80
2022-12-15T21:29:48.731Z,-3.83
2022-12-15T21:32:19.786Z,-3.86
2022-12-15T21:34:47.353Z,-3.88
2022-12-15T21:37:23.249Z,-3.84
2022-12-15T21:39:50.919Z,-3.90
2022-12-15T21:42:20.973Z,-3.80
2022-12-15T21:44:48.892Z,-3.81
2022-12-15T21:47:24.848Z,-3.81
2022-12-15T21:49:51.718Z,-3.74
2022-12-15T21:52:20.926Z,-3.74
2022-12-15T21:54:48.498Z,-3.75
2022-12-15T21:57:16.066Z,-3.78
2022-12-15T21:59:44.989Z,-3.74
2022-12-15T22:02:25.057Z,-3.73
2022-12-15T22:04:55.031Z,-3.76
2022-12-15T22:07:22.817Z,-3.79
2022-12-15T22:09:51.733Z,-3.75
2022-12-15T22:12:21.264Z,-3.78
2022-12-15T22:14:50.407Z,-3.77
2022-12-15T22:17:21.612Z,-3.71
2022-12-15T22:19:49.282Z,-3.69
2022-12-15T22:22:17.023Z,-3.75
2022-12-15T22:24:44.710Z,-3.81
2022-12-15T22:27:18.766Z,-3.75
2022-12-15T22:29:46.386Z,-3.75
2022-12-15T22:32:16.304Z,-3.76
2022-12-15T22:34:44.103Z,-3.72
2022-12-15T22:37:13.134Z,-3.69
2022-12-15T22:39:40.758Z,-3.69
2022-12-15T22:42:09.105Z,-3.71
2022-12-15T22:44:38.262Z,-3.74
2022-12-15T22:47:05.960Z,-3.72
2022-12-15T22:49:37.469Z,-3.69
2022-12-15T22:52:15.078Z,-3.76
2022-12-15T22:54:45.563Z,-3.76
2022-12-15T22:57:20.574Z,-3.76
2022-12-15T22:59:52.187Z,-3.74
2022-12-15T23:02:22.139Z,-3.74
2022-12-15T23:04:53.829Z,-3.76
2022-12-15T23:07:22.348Z,-3.73
2022-12-15T23:10:09.983Z,-3.70
2022-12-15T23:12:36.646Z,-3.64
2022-12-15T23:15:21.970Z,-3.69
2022-12-15T23:17:49.631Z,-3.71
2022-12-15T23:20:19.469Z,-3.62
2022-12-15T23:22:47.150Z,-3.68
2022-12-15T23:25:14.925Z,-3.66
2022-12-15T23:27:43.042Z,-3.65
2022-12-15T23:30:12.679Z,-3.68
2022-12-15T23:32:40.370Z,-3.66
2022-12-15T23:35:08.432Z,-3.71
2022-12-15T23:37:37.402Z,-3.65
2022-12-15T23:40:06.602Z,-3.56
2022-12-15T23:42:34.153Z,-3.60
2022-12-15T23:45:01.842Z,-3.59
2022-12-15T23:47:29.564Z,-3.61
2022-12-15T23:49:57.435Z,-3.64
2022-12-15T23:52:28.345Z,-3.73
2022-12-15T23:54:57.299Z,-3.66
2022-12-15T23:57:24.899Z,-3.66
2022-12-15T23:59:52.492Z,-3.65
